createdAt,value
2022-09-01T00:00:49.386Z,18.70
2022-09-01T00:03:18.633Z,18.70
2022-09-01T00:05:51.191Z,18.70
2022-09-01T00:08:19.905Z,18.70
2022-09-01T00:10:49.127Z,18.70
2022-09-01T00:13:18.295Z,18.70
2022-09-01T00:15:48.248Z,18.60
2022-09-01T00:18:16.828Z,18.70
2022-09-01T00:20:45.374Z,18.60
2022-09-01T00:23:13.872Z,18.60
2022-09-01T00:25:42.704Z,18.60
2022-09-01T00:28:11.114Z,18.60
2022-09-01T00:30:39.579Z,18.50
2022-09-01T00:33:09.608Z,18.50
2022-09-01T00:35:38.083Z,18.50
2022-09-01T00:38:06.682Z,18.50
2022-09-01T00:40:35.712Z,18.50
2022-09-01T00:43:14.975Z,18.50
2022-09-01T00:45:43.658Z,18.40
2022-09-01T00:48:15.226Z,18.40
2022-09-01T00:50:44.243Z,18.40
2022-09-01T00:53:17.976Z,18.40
2022-09-01T00:55:46.491Z,18.40
2022-09-01T00:58:19.601Z,18.40
2022-09-01T01:00:50.570Z,18.30
2022-09-01T01:03:20.683Z,18.30
2022-09-01T01:05:54.406Z,18.30
2022-09-01T01:08:31.236Z,18.30
2022-09-01T01:10:59.668Z,18.30
2022-09-01T01:13:29.098Z,18.30
2022-09-01T01:15:57.691Z,18.30
2022-09-01T01:18:27.620Z,18.20
2022-09-01T01:21:20.012Z,18.20
2022-09-01T01:23:56.718Z,18.20
2022-09-01T01:26:27.373Z,18.20
2022-09-01T01:28:56.111Z,18.20
2022-09-01T01:31:25.823Z,18.20
2022-09-01T01:33:56.847Z,18.20
2022-09-01T01:36:32.728Z,18.20
2022-09-01T01:39:03.940Z,18.20
2022-09-01T01:41:35.946Z,18.10
2022-09-01T01:44:06.188Z,18.10
2022-09-01T01:46:36.240Z,18.10
2022-09-01T01:49:05.321Z,18.10
2022-09-01T01:51:34.499Z,18.10
2022-09-01T01:54:06.205Z,18.10
2022-09-01T01:56:39.879Z,18.10
2022-09-01T01:59:10.789Z,18.10
2022-09-01T02:01:39.446Z,18.00
2022-09-01T02:04:08.029Z,18.00
2022-09-01T02:06:41.582Z,18.00
2022-09-01T02:09:10.481Z,17.90
2022-09-01T02:11:40.358Z,17.90
2022-09-01T02:14:09.930Z,17.90
2022-09-01T02:16:38.771Z,17.90
2022-09-01T02:19:10.118Z,17.80
2022-09-01T02:21:38.737Z,17.80
2022-09-01T02:24:08.670Z,17.80
2022-09-01T02:26:40.980Z,17.80
2022-09-01T02:29:18.139Z,17.70
2022-09-01T02:31:48.087Z,17.70
2022-09-01T02:34:17.239Z,17.70
2022-09-01T02:36:49.203Z,17.70
2022-09-01T02:39:18.929Z,17.70
2022-09-01T02:41:49.563Z,17.60
2022-09-01T02:44:20.142Z,17.60
2022-09-01T02:46:49.372Z,17.60
2022-09-01T02:49:21.290Z,17.60
2022-09-01T02:51:54.309Z,17.60
2022-09-01T02:54:24.699Z,17.60
2022-09-01T02:56:55.045Z,17.50
2022-09-01T02:59:26.445Z,17.50
2022-09-01T03:01:56.523Z,17.50
2022-09-01T03:04:27.389Z,17.50
2022-09-01T03:06:59.002Z,17.50
2022-09-01T03:09:28.212Z,17.50
2022-09-01T03:11:57.966Z,17.50
2022-09-01T03:14:27.356Z,17.50
2022-09-01T03:16:55.865Z,17.40
2022-09-01T03:19:24.493Z,17.40
2022-09-01T03:21:52.968Z,17.50
2022-09-01T03:24:22.565Z,17.40
2022-09-01T03:26:53.444Z,17.40
2022-09-01T03:29:23.270Z,17.40
2022-09-01T03:31:52.056Z,17.30
2022-09-01T03:34:23.811Z,17.40
2022-09-01T03:36:52.583Z,17.30
2022-09-01T03:39:21.300Z,17.30
2022-09-01T03:41:49.950Z,17.30
2022-09-01T03:44:18.349Z,17.30
2022-09-01T03:46:48.814Z,17.30
2022-09-01T03:49:25.195Z,17.20
2022-09-01T03:51:54.239Z,17.20
2022-09-01T03:54:25.032Z,17.20
2022-09-01T03:56:54.919Z,17.20
2022-09-01T03:59:25.710Z,17.10
2022-09-01T04:01:57.751Z,17.10
2022-09-01T04:04:26.251Z,17.10
2022-09-01T04:06:54.779Z,17.10
2022-09-01T04:09:23.169Z,17.10
2022-09-01T04:11:51.771Z,17.10
2022-09-01T04:14:20.430Z,17.00
2022-09-01T04:17:06.592Z,17.00
2022-09-01T04:19:39.744Z,17.00
2022-09-01T04:22:14.616Z,17.00
2022-09-01T04:24:46.136Z,17.00
2022-09-01T04:27:18.222Z,16.90
2022-09-01T04:29:48.694Z,16.90
2022-09-01T04:32:17.334Z,16.90
2022-09-01T04:34:47.355Z,16.90
2022-09-01T04:37:20.546Z,16.90
2022-09-01T04:39:55.651Z,16.90
2022-09-01T04:42:27.446Z,16.80
2022-09-01T04:45:10.723Z,16.80
2022-09-01T04:47:44.510Z,16.80
2022-09-01T04:50:27.086Z,16.80
2022-09-01T04:52:59.150Z,16.80
2022-09-01T04:55:29.752Z,16.80
2022-09-01T04:58:23.365Z,16.80
2022-09-01T05:00:53.253Z,16.80
2022-09-01T05:03:24.682Z,16.70
2022-09-01T05:06:04.163Z,16.70
2022-09-01T05:08:36.241Z,16.70
2022-09-01T05:11:07.949Z,16.70
2022-09-01T05:13:39.125Z,16.70
2022-09-01T05:16:25.077Z,16.70
2022-09-01T05:18:57.279Z,16.70
2022-09-01T05:21:28.433Z,16.60
2022-09-01T05:24:00.879Z,16.70
2022-09-01T05:26:31.831Z,16.60
2022-09-01T05:29:02.768Z,16.60
2022-09-01T05:31:38.985Z,16.60
2022-09-01T05:34:09.970Z,16.60
2022-09-01T05:36:43.835Z,16.60
2022-09-01T05:39:12.499Z,16.60
2022-09-01T05:41:41.112Z,16.60
2022-09-01T05:44:10.295Z,16.60
2022-09-01T05:46:40.099Z,16.60
2022-09-01T05:49:09.505Z,16.60
2022-09-01T05:51:44.443Z,16.60
2022-09-01T05:54:15.183Z,16.60
2022-09-01T05:56:44.875Z,16.60
2022-09-01T05:59:28.989Z,16.60
2022-09-01T06:01:57.944Z,16.50
2022-09-01T06:04:27.002Z,16.60
2022-09-01T06:07:06.973Z,16.50
2022-09-01T06:09:39.739Z,16.60
2022-09-01T06:12:09.388Z,16.60
2022-09-01T06:14:37.811Z,16.50
2022-09-01T06:17:11.820Z,16.50
2022-09-01T06:19:41.694Z,16.50
2022-09-01T06:22:11.552Z,16.60
2022-09-01T06:24:43.500Z,16.60
2022-09-01T06:27:13.514Z,16.60
2022-09-01T06:29:42.357Z,16.60
2022-09-01T06:32:12.698Z,16.60
2022-09-01T06:34:44.683Z,16.60
2022-09-01T06:37:15.673Z,16.60
2022-09-01T06:39:44.175Z,16.60
2022-09-01T06:42:14.231Z,16.60
2022-09-01T06:44:42.692Z,16.60
2022-09-01T06:47:11.160Z,16.60
2022-09-01T06:49:41.467Z,16.60
2022-09-01T06:52:11.883Z,16.60
2022-09-01T06:54:44.182Z,16.70
2022-09-01T07:00:08.304Z,16.70
2022-09-01T07:02:39.608Z,16.70
2022-09-01T07:05:58.290Z,16.70
2022-09-01T07:08:06.997Z,16.70
2022-09-01T07:13:36.064Z,16.80
2022-09-01T07:19:00.443Z,16.80
2022-09-01T07:21:39.184Z,16.90
2022-09-01T07:24:11.767Z,16.90
2022-09-01T07:26:47.189Z,16.90
2022-09-01T07:29:16.688Z,16.90
2022-09-01T07:31:50.232Z,16.90
2022-09-01T07:39:56.447Z,17.00
2022-09-01T07:45:32.687Z,17.10
2022-09-01T07:48:03.704Z,17.10
2022-09-01T07:51:34.406Z,17.20
2022-09-01T07:53:23.788Z,17.20
2022-09-01T07:55:53.605Z,17.30
2022-09-01T07:58:25.060Z,17.30
2022-09-01T08:00:54.586Z,17.40
2022-09-01T08:03:25.556Z,17.40
2022-09-01T08:05:57.903Z,17.40
2022-09-01T08:08:29.339Z,17.50
2022-09-01T08:11:05.262Z,17.50
2022-09-01T08:13:41.695Z,17.60
2022-09-01T08:16:18.787Z,17.60
2022-09-01T08:18:49.524Z,17.70
2022-09-01T08:21:22.253Z,17.70
2022-09-01T08:23:51.411Z,17.80
2022-09-01T08:26:22.352Z,17.80
2022-09-01T08:28:55.748Z,17.90
2022-09-01T08:31:30.559Z,17.90
2022-09-01T08:34:00.321Z,18.00
2022-09-01T08:36:28.728Z,18.00
2022-09-01T08:38:57.224Z,18.00
2022-09-01T08:41:39.755Z,18.10
2022-09-01T08:44:28.023Z,18.20
2022-09-01T08:47:02.631Z,18.20
2022-09-01T08:49:42.723Z,18.30
2022-09-01T08:52:21.245Z,18.30
2022-09-01T08:54:52.500Z,18.30
2022-09-01T08:57:24.670Z,18.40
2022-09-01T08:59:55.405Z,18.40
2022-09-01T09:02:38.625Z,18.50
2022-09-01T09:05:19.307Z,18.50
2022-09-01T09:08:09.808Z,18.60
2022-09-01T09:10:49.824Z,18.60
2022-09-01T09:13:25.986Z,18.70
2022-09-01T09:16:08.139Z,18.70
2022-09-01T09:18:59.615Z,18.80
2022-09-01T09:21:33.916Z,18.80
2022-09-01T09:24:08.321Z,18.90
2022-09-01T09:26:44.815Z,18.90
2022-09-01T09:29:15.083Z,18.90
2022-09-01T09:31:50.524Z,19.00
2022-09-01T09:34:32.881Z,19.00
2022-09-01T09:37:17.713Z,19.00
2022-09-01T09:39:46.221Z,19.10
2022-09-01T09:42:16.219Z,19.10
2022-09-01T09:44:47.173Z,19.10
2022-09-01T09:47:45.015Z,19.10
2022-09-01T09:50:21.360Z,19.10
2022-09-01T09:52:50.981Z,19.20
2022-09-01T09:55:28.460Z,19.20
2022-09-01T09:58:02.421Z,19.20
2022-09-01T10:00:34.216Z,19.30
2022-09-01T10:03:10.185Z,19.30
2022-09-01T10:05:43.290Z,19.40
2022-09-01T10:08:15.048Z,19.40
2022-09-01T10:10:45.925Z,19.40
2022-09-01T10:13:29.255Z,19.40
2022-09-01T10:16:07.824Z,19.40
2022-09-01T10:18:41.781Z,19.50
2022-09-01T10:21:14.843Z,19.50
2022-09-01T10:23:44.899Z,19.50
2022-09-01T10:26:18.847Z,19.50
2022-09-01T10:28:53.450Z,19.60
2022-09-01T10:31:22.861Z,19.60
2022-09-01T10:33:53.098Z,19.60
2022-09-01T10:36:24.633Z,19.60
2022-09-01T10:38:58.712Z,19.70
2022-09-01T10:42:00.499Z,19.70
2022-09-01T10:44:34.354Z,19.70
2022-09-01T10:47:13.570Z,19.70
2022-09-01T10:50:01.463Z,19.80
2022-09-01T10:53:04.701Z,19.80
2022-09-01T10:55:42.179Z,19.80
2022-09-01T11:02:34.950Z,19.90
2022-09-01T11:05:20.008Z,19.90
2022-09-01T11:08:15.051Z,20.00
2022-09-01T11:10:49.288Z,19.90
2022-09-01T11:13:37.433Z,20.00
2022-09-01T11:16:49.225Z,20.00
2022-09-01T11:19:32.730Z,20.00
2022-09-01T11:22:32.749Z,20.10
2022-09-01T11:25:15.162Z,20.10
2022-09-01T11:28:04.858Z,20.10
2022-09-01T11:30:50.801Z,20.10
2022-09-01T11:33:43.427Z,20.20
2022-09-01T11:36:23.698Z,20.20
2022-09-01T11:38:59.556Z,20.20
2022-09-01T11:41:34.381Z,20.20
2022-09-01T11:44:04.961Z,20.20
2022-09-01T11:46:36.099Z,20.20
2022-09-01T11:49:08.666Z,20.20
2022-09-01T11:51:46.174Z,20.30
2022-09-01T11:54:16.999Z,20.30
2022-09-01T11:56:45.542Z,20.30
2022-09-01T11:59:19.143Z,20.30
2022-09-01T12:01:48.751Z,20.30
2022-09-01T12:04:27.711Z,20.30
2022-09-01T12:06:59.317Z,20.30
2022-09-01T12:09:38.959Z,20.30
2022-09-01T12:12:09.177Z,20.40
2022-09-01T12:15:01.902Z,20.40
2022-09-01T12:17:26.702Z,20.40
2022-09-01T12:19:55.661Z,20.40
2022-09-01T12:22:25.155Z,20.40
2022-09-01T12:24:56.299Z,20.40
2022-09-01T12:27:24.939Z,20.40
2022-09-01T12:29:53.912Z,20.50
2022-09-01T12:32:23.092Z,20.50
2022-09-01T12:35:09.264Z,20.50
2022-09-01T12:37:40.039Z,20.50
2022-09-01T12:40:25.039Z,20.50
2022-09-01T12:42:54.788Z,20.50
2022-09-01T12:45:42.935Z,20.50
2022-09-01T12:48:26.997Z,20.60
2022-09-01T12:51:00.613Z,20.60
2022-09-01T12:53:32.512Z,20.60
2022-09-01T12:56:21.705Z,20.60
2022-09-01T12:58:54.866Z,20.60
2022-09-01T13:01:30.044Z,20.60
2022-09-01T13:04:23.448Z,20.60
2022-09-01T13:06:53.350Z,20.60
2022-09-01T13:09:22.034Z,20.60
2022-09-01T13:12:07.932Z,20.70
2022-09-01T13:14:36.610Z,20.60
2022-09-01T13:17:06.175Z,20.60
2022-09-01T13:19:43.506Z,20.70
2022-09-01T13:22:12.355Z,20.70
2022-09-01T13:24:41.141Z,20.60
2022-09-01T13:27:21.039Z,20.60
2022-09-01T13:29:51.962Z,20.60
2022-09-01T13:32:22.595Z,20.70
2022-09-01T13:34:52.969Z,20.70
2022-09-01T13:37:22.154Z,20.70
2022-09-01T13:39:51.271Z,20.70
2022-09-01T13:42:21.418Z,20.70
2022-09-01T13:44:52.602Z,20.70
2022-09-01T13:47:31.836Z,20.70
2022-09-01T13:50:11.200Z,20.70
2022-09-01T13:52:41.378Z,20.70
2022-09-01T13:55:12.428Z,20.70
2022-09-01T13:57:42.476Z,20.80
2022-09-01T14:00:14.168Z,20.80
2022-09-01T14:02:49.229Z,20.80
2022-09-01T14:05:18.650Z,20.80
2022-09-01T14:07:47.402Z,20.80
2022-09-01T14:10:16.192Z,20.80
2022-09-01T14:12:53.031Z,20.80
2022-09-01T14:15:26.985Z,20.80
2022-09-01T14:17:57.619Z,20.80
2022-09-01T14:20:29.138Z,20.80
2022-09-01T14:22:57.571Z,20.80
2022-09-01T14:25:26.889Z,20.80
2022-09-01T14:27:57.281Z,20.80
2022-09-01T14:30:31.462Z,20.90
2022-09-01T14:33:00.980Z,20.90
2022-09-01T14:35:33.356Z,20.90
2022-09-01T14:38:02.832Z,20.90
2022-09-01T14:40:31.286Z,20.90
2022-09-01T14:43:01.747Z,20.90
2022-09-01T14:45:30.477Z,21.00
2022-09-01T14:48:02.181Z,20.90
2022-09-01T14:50:32.847Z,20.90
2022-09-01T14:53:03.636Z,21.00
2022-09-01T14:55:33.071Z,21.00
2022-09-01T14:58:03.042Z,21.00
2022-09-01T15:00:36.010Z,21.00
2022-09-01T15:03:04.829Z,21.00
2022-09-01T15:05:39.409Z,21.00
2022-09-01T15:08:12.978Z,21.00
2022-09-01T15:10:44.448Z,21.00
2022-09-01T15:13:15.433Z,21.10
2022-09-01T15:15:43.923Z,21.10
2022-09-01T15:18:12.429Z,21.10
2022-09-01T15:20:48.908Z,21.10
2022-09-01T15:23:19.190Z,21.10
2022-09-01T15:25:47.980Z,21.10
2022-09-01T15:28:17.966Z,21.10
2022-09-01T15:30:47.602Z,21.10
2022-09-01T15:33:16.651Z,21.10
2022-09-01T15:35:45.822Z,21.10
2022-09-01T15:38:17.115Z,21.10
2022-09-01T15:40:57.074Z,21.10
2022-09-01T15:43:29.639Z,21.20
2022-09-01T15:45:59.413Z,21.10
2022-09-01T15:48:28.943Z,21.20
2022-09-01T15:51:17.814Z,21.10
2022-09-01T15:53:47.444Z,21.20
2022-09-01T15:56:16.950Z,21.20
2022-09-01T15:59:00.366Z,21.20
2022-09-01T16:01:31.619Z,21.20
2022-09-01T16:04:01.390Z,21.20
2022-09-01T16:06:30.144Z,21.20
2022-09-01T16:08:58.682Z,21.20
2022-09-01T16:11:27.875Z,21.20
2022-09-01T16:13:57.875Z,21.20
2022-09-01T16:16:47.526Z,21.20
2022-09-01T16:19:28.147Z,21.30
2022-09-01T16:22:06.264Z,21.30
2022-09-01T16:24:42.538Z,21.30
2022-09-01T16:27:17.063Z,21.30
2022-09-01T16:29:51.904Z,21.30
2022-09-01T16:32:23.489Z,21.30
2022-09-01T16:34:53.483Z,21.40
2022-09-01T16:37:39.767Z,21.40
2022-09-01T16:40:17.290Z,21.40
2022-09-01T16:42:50.923Z,21.40
2022-09-01T16:45:42.245Z,21.40
2022-09-01T16:48:19.472Z,21.40
2022-09-01T16:50:56.519Z,21.50
2022-09-01T16:53:40.297Z,21.50
2022-09-01T16:56:13.235Z,21.50
2022-09-01T16:58:49.452Z,21.50
2022-09-01T17:01:30.376Z,21.50
2022-09-01T17:04:14.031Z,21.50
2022-09-01T17:06:57.480Z,21.50
2022-09-01T17:09:32.737Z,21.50
2022-09-01T17:12:27.847Z,21.60
2022-09-01T17:14:59.885Z,21.60
2022-09-01T17:17:35.268Z,21.60
2022-09-01T17:20:06.517Z,21.60
2022-09-01T17:22:37.707Z,21.60
2022-09-01T17:25:09.947Z,21.60
2022-09-01T17:27:48.271Z,21.60
2022-09-01T17:30:17.374Z,21.50
2022-09-01T17:33:12.130Z,21.50
2022-09-01T17:36:01.901Z,21.50
2022-09-01T17:38:37.705Z,21.50
2022-09-01T17:41:19.448Z,21.50
2022-09-01T17:43:58.687Z,21.50
2022-09-01T17:46:37.931Z,21.50
2022-09-01T17:49:20.067Z,21.50
2022-09-01T17:51:59.540Z,21.40
2022-09-01T17:54:37.259Z,21.40
2022-09-01T17:57:11.045Z,21.40
2022-09-01T17:59:46.313Z,21.40
2022-09-01T18:02:58.342Z,21.40
2022-09-01T18:05:29.524Z,21.40
2022-09-01T18:08:13.734Z,21.30
2022-09-01T18:10:46.815Z,21.30
2022-09-01T18:13:36.128Z,21.30
2022-09-01T18:16:14.795Z,21.20
2022-09-01T18:18:46.080Z,21.20
2022-09-01T18:21:19.363Z,21.20
2022-09-01T18:23:50.591Z,21.20
2022-09-01T18:26:27.351Z,21.20
2022-09-01T18:28:56.366Z,21.10
2022-09-01T18:31:49.054Z,21.10
2022-09-01T18:34:27.331Z,21.10
2022-09-01T18:37:07.691Z,21.10
2022-09-01T18:39:49.183Z,21.00
2022-09-01T18:42:29.937Z,21.00
2022-09-01T18:45:06.821Z,21.00
2022-09-01T18:47:38.088Z,20.90
2022-09-01T18:50:15.125Z,20.90
2022-09-01T18:53:08.425Z,20.90
2022-09-01T18:55:43.228Z,20.80
2022-09-01T18:58:18.098Z,20.80
2022-09-01T19:00:56.092Z,20.70
2022-09-01T19:03:31.396Z,20.70
2022-09-01T19:06:19.544Z,20.70
2022-09-01T19:08:58.974Z,20.70
2022-09-01T19:11:40.930Z,20.60
2022-09-01T19:14:17.812Z,20.60
2022-09-01T19:16:56.495Z,20.60
2022-09-01T19:19:40.150Z,20.50
2022-09-01T19:22:09.856Z,20.50
2022-09-01T19:24:45.070Z,20.50
2022-09-01T19:27:15.945Z,20.40
2022-09-01T19:29:52.573Z,20.40
2022-09-01T19:32:23.549Z,20.40
2022-09-01T19:34:56.601Z,20.30
2022-09-01T19:37:25.242Z,20.30
2022-09-01T19:39:55.277Z,20.30
2022-09-01T19:42:30.504Z,20.30
2022-09-01T19:45:06.494Z,20.30
2022-09-01T19:47:42.809Z,20.20
2022-09-01T19:50:18.784Z,20.20
2022-09-01T19:52:55.707Z,20.20
2022-09-01T19:55:32.291Z,20.20
2022-09-01T19:58:04.596Z,20.10
2022-09-01T20:00:50.700Z,20.10
2022-09-01T20:03:23.508Z,20.10
2022-09-01T20:05:57.118Z,20.00
2022-09-01T20:08:31.230Z,20.00
2022-09-01T20:11:05.406Z,20.00
2022-09-01T20:13:50.671Z,20.00
2022-09-01T20:16:27.468Z,20.00
2022-09-01T20:19:01.098Z,19.90
2022-09-01T20:21:29.786Z,19.80
2022-09-01T20:24:03.257Z,19.80
2022-09-01T20:26:38.542Z,19.80
2022-09-01T20:29:14.845Z,19.80
2022-09-01T20:31:49.025Z,19.80
2022-09-01T20:34:25.334Z,19.70
2022-09-01T20:37:02.059Z,19.70
2022-09-01T20:39:57.106Z,19.70
2022-09-01T20:42:34.128Z,19.70
2022-09-01T20:45:09.532Z,19.60
2022-09-01T20:47:37.895Z,19.60
2022-09-01T20:50:12.785Z,19.60
2022-09-01T20:52:55.963Z,19.60
2022-09-01T20:55:28.662Z,19.60
2022-09-01T20:58:05.504Z,19.50
2022-09-01T21:00:52.559Z,19.50
2022-09-01T21:03:47.356Z,19.50
2022-09-01T21:06:37.031Z,19.40
2022-09-01T21:09:11.656Z,19.50
2022-09-01T21:11:44.754Z,19.40
2022-09-01T21:14:40.556Z,19.50
2022-09-01T21:17:18.181Z,19.40
2022-09-01T21:20:13.770Z,19.40
2022-09-01T21:22:42.336Z,19.40
2022-09-01T21:25:12.292Z,19.30
2022-09-01T21:27:45.369Z,19.30
2022-09-01T21:30:17.075Z,19.30
2022-09-01T21:32:48.885Z,19.30
2022-09-01T21:35:20.444Z,19.20
2022-09-01T21:37:49.070Z,19.20
2022-09-01T21:40:19.150Z,19.30
2022-09-01T21:42:50.725Z,19.20
2022-09-01T21:45:20.890Z,19.20
2022-09-01T21:47:50.681Z,19.20
2022-09-01T21:50:21.985Z,19.10
2022-09-01T21:52:50.878Z,19.10
2022-09-01T21:55:22.935Z,19.10
2022-09-01T21:57:51.954Z,19.10
2022-09-01T22:00:24.914Z,19.10
2022-09-01T22:02:54.957Z,19.10
2022-09-01T22:05:26.316Z,19.10
2022-09-01T22:07:56.095Z,19.10
2022-09-01T22:10:28.750Z,19.00
2022-09-01T22:12:58.413Z,19.00
2022-09-01T22:15:28.425Z,19.00
2022-09-01T22:17:58.836Z,19.00
2022-09-01T22:20:29.318Z,19.00
2022-09-01T22:23:02.134Z,19.00
2022-09-01T22:25:32.293Z,18.90
2022-09-01T22:28:01.625Z,18.90
2022-09-01T22:30:31.910Z,18.90
2022-09-01T22:33:01.711Z,18.90
2022-09-01T22:35:30.443Z,18.90
2022-09-01T22:37:58.887Z,18.80
2022-09-01T22:40:27.293Z,18.80
2022-09-01T22:42:55.712Z,18.80
2022-09-01T22:45:24.177Z,18.80
2022-09-01T22:47:53.996Z,18.70
2022-09-01T22:50:22.497Z,18.80
2022-09-01T22:52:50.915Z,18.80
2022-09-01T22:55:19.777Z,18.70
2022-09-01T22:57:48.144Z,18.70
2022-09-01T23:00:17.292Z,18.70
2022-09-01T23:02:46.117Z,18.70
2022-09-01T23:05:18.704Z,18.70
2022-09-01T23:07:47.097Z,18.70
2022-09-01T23:10:15.876Z,18.60
2022-09-01T23:12:44.319Z,18.60
2022-09-01T23:15:13.039Z,18.60
2022-09-01T23:17:41.448Z,18.60
2022-09-01T23:20:13.110Z,18.60
2022-09-01T23:22:43.845Z,18.60
2022-09-01T23:25:14.023Z,18.50
2022-09-01T23:27:43.189Z,18.60
2022-09-01T23:30:14.491Z,18.50
2022-09-01T23:32:43.110Z,18.50
2022-09-01T23:35:12.576Z,18.50
2022-09-01T23:37:42.435Z,18.50
2022-09-01T23:40:11.615Z,18.50
2022-09-01T23:42:41.583Z,18.50
2022-09-01T23:45:11.082Z,18.50
2022-09-01T23:47:39.444Z,18.50
2022-09-01T23:50:10.127Z,18.40
2022-09-01T23:52:39.502Z,18.40
2022-09-01T23:55:10.643Z,18.40
2022-09-01T23:57:39.193Z,18.40
